createdAt,value
2022-08-25T00:02:03.172Z,100.00
2022-08-25T00:04:33.719Z,100.00
2022-08-25T00:07:03.361Z,100.00
2022-08-25T00:09:32.537Z,100.00
2022-08-25T00:11:59.988Z,100.00
2022-08-25T00:14:30.689Z,100.00
2022-08-25T00:16:58.274Z,100.00
2022-08-25T00:19:29.392Z,100.00
2022-08-25T00:21:56.645Z,100.00
2022-08-25T00:24:24.759Z,100.00
2022-08-25T00:26:56.829Z,100.00
2022-08-25T00:29:26.426Z,100.00
2022-08-25T00:31:55.124Z,100.00
2022-08-25T00:34:34.701Z,100.00
2022-08-25T00:37:03.358Z,100.00
2022-08-25T00:39:30.875Z,100.00
2022-08-25T00:41:59.132Z,100.00
2022-08-25T00:44:28.697Z,100.00
2022-08-25T00:46:58.644Z,100.00
2022-08-25T00:49:41.530Z,100.00
2022-08-25T00:52:16.742Z,100.00
2022-08-25T00:54:50.419Z,100.00
2022-08-25T00:57:33.900Z,100.00
2022-08-25T01:00:08.405Z,100.00
2022-08-25T01:02:35.803Z,100.00
2022-08-25T01:05:03.596Z,100.00
2022-08-25T01:07:30.699Z,100.00
2022-08-25T01:09:58.041Z,100.00
2022-08-25T01:12:25.108Z,100.00
2022-08-25T01:14:53.903Z,100.00
2022-08-25T01:17:22.105Z,100.00
2022-08-25T01:19:49.197Z,100.00
2022-08-25T01:22:16.904Z,100.00
2022-08-25T01:25:14.452Z,100.00
2022-08-25T01:27:41.615Z,100.00
2022-08-25T01:30:09.298Z,100.00
2022-08-25T01:32:36.542Z,100.00
2022-08-25T01:35:04.125Z,100.00
2022-08-25T01:37:35.180Z,100.00
2022-08-25T01:40:02.519Z,100.00
2022-08-25T01:42:43.922Z,100.00
2022-08-25T01:45:11.507Z,100.00
2022-08-25T01:47:38.722Z,100.00
2022-08-25T01:50:07.546Z,100.00
2022-08-25T01:52:58.349Z,100.00
2022-08-25T01:55:25.747Z,100.00
2022-08-25T01:57:53.834Z,100.00
2022-08-25T02:00:23.206Z,100.00
2022-08-25T02:02:52.241Z,100.00
2022-08-25T02:05:23.483Z,100.00
2022-08-25T02:07:51.190Z,100.00
2022-08-25T02:10:18.207Z,100.00
2022-08-25T02:12:45.433Z,100.00
2022-08-25T02:15:12.708Z,100.00
2022-08-25T02:17:39.846Z,100.00
2022-08-25T02:20:11.073Z,100.00
2022-08-25T02:22:38.555Z,100.00
2022-08-25T02:25:07.889Z,100.00
2022-08-25T02:27:35.739Z,100.00
2022-08-25T02:30:04.545Z,100.00
2022-08-25T02:32:31.729Z,100.00
2022-08-25T02:34:58.761Z,100.00
2022-08-25T02:37:26.110Z,100.00
2022-08-25T02:39:53.323Z,100.00
2022-08-25T02:42:22.197Z,100.00
2022-08-25T02:44:49.653Z,100.00
2022-08-25T02:47:17.127Z,100.00
2022-08-25T02:49:45.020Z,100.00
2022-08-25T02:52:12.050Z,100.00
2022-08-25T02:54:39.213Z,100.00
2022-08-25T02:57:06.365Z,100.00
2022-08-25T02:59:33.638Z,100.00
2022-08-25T03:02:00.632Z,100.00
2022-08-25T03:04:29.219Z,100.00
2022-08-25T03:06:56.582Z,100.00
2022-08-25T03:09:23.879Z,100.00
2022-08-25T03:11:50.901Z,100.00
2022-08-25T03:14:18.307Z,100.00
2022-08-25T03:16:46.475Z,100.00
2022-08-25T03:19:14.546Z,100.00
2022-08-25T03:21:41.760Z,100.00
2022-08-25T03:24:09.212Z,100.00
2022-08-25T03:26:54.481Z,100.00
2022-08-25T03:29:27.012Z,100.00
2022-08-25T03:31:55.566Z,100.00
2022-08-25T03:34:23.387Z,100.00
2022-08-25T03:36:52.042Z,100.00
2022-08-25T03:39:21.264Z,100.00
2022-08-25T03:41:48.422Z,100.00
2022-08-25T03:44:16.636Z,100.00
2022-08-25T03:46:46.756Z,100.00
2022-08-25T03:49:19.888Z,100.00
2022-08-25T03:51:49.487Z,100.00
2022-08-25T03:54:19.448Z,100.00
2022-08-25T03:56:46.557Z,100.00
2022-08-25T03:59:13.861Z,100.00
2022-08-25T04:01:44.213Z,100.00
2022-08-25T04:04:13.521Z,100.00
2022-08-25T04:06:42.209Z,100.00
2022-08-25T04:09:09.837Z,100.00
2022-08-25T04:11:37.684Z,100.00
2022-08-25T04:14:05.145Z,100.00
2022-08-25T04:16:35.342Z,100.00
2022-08-25T04:19:06.201Z,100.00
2022-08-25T04:21:33.534Z,100.00
2022-08-25T04:24:00.857Z,100.00
2022-08-25T04:26:32.387Z,100.00
2022-08-25T04:29:00.918Z,100.00
2022-08-25T04:31:33.656Z,100.00
2022-08-25T04:34:04.019Z,100.00
2022-08-25T04:36:41.648Z,100.00
2022-08-25T04:39:09.190Z,100.00
2022-08-25T04:41:38.537Z,100.00
2022-08-25T04:44:06.066Z,100.00
2022-08-25T04:46:34.757Z,100.00
2022-08-25T04:49:03.557Z,100.00
2022-08-25T04:51:36.318Z,100.00
2022-08-25T04:54:06.296Z,100.00
2022-08-25T04:56:34.305Z,100.00
2022-08-25T04:59:07.386Z,100.00
2022-08-25T05:01:35.349Z,100.00
2022-08-25T05:04:04.887Z,100.00
2022-08-25T05:06:32.056Z,100.00
2022-08-25T05:09:00.063Z,100.00
2022-08-25T05:11:27.741Z,100.00
2022-08-25T05:13:55.558Z,100.00
2022-08-25T05:16:25.535Z,100.00
2022-08-25T05:18:53.513Z,100.00
2022-08-25T05:21:24.490Z,100.00
2022-08-25T05:23:57.036Z,100.00
2022-08-25T05:26:26.721Z,100.00
2022-08-25T05:28:55.463Z,100.00
2022-08-25T05:31:24.344Z,100.00
2022-08-25T05:33:52.408Z,100.00
2022-08-25T05:36:20.468Z,100.00
2022-08-25T05:38:48.020Z,100.00
2022-08-25T05:41:16.806Z,100.00
2022-08-25T05:43:46.205Z,99.76
2022-08-25T05:46:13.903Z,97.68
2022-08-25T05:48:40.924Z,100.00
2022-08-25T05:51:13.161Z,95.12
2022-08-25T05:53:43.146Z,93.08
2022-08-25T05:56:10.491Z,92.84
2022-08-25T05:58:38.121Z,92.33
2022-08-25T06:01:23.931Z,90.41
2022-08-25T06:03:54.823Z,88.48
2022-08-25T06:06:23.607Z,88.04
2022-08-25T06:08:51.697Z,87.41
2022-08-25T06:11:19.939Z,86.28
2022-08-25T06:13:47.218Z,86.69
2022-08-25T06:16:14.570Z,85.27
2022-08-25T06:18:41.766Z,85.03
2022-08-25T06:21:13.504Z,82.92
2022-08-25T06:23:41.371Z,82.25
2022-08-25T06:26:13.170Z,81.06
2022-08-25T06:28:47.982Z,81.26
2022-08-25T06:31:15.658Z,80.41
2022-08-25T06:33:43.002Z,79.81
2022-08-25T06:36:10.225Z,79.68
2022-08-25T06:38:37.368Z,80.07
2022-08-25T06:41:05.627Z,78.77
2022-08-25T06:43:34.734Z,78.64
2022-08-25T06:46:17.117Z,79.84
2022-08-25T06:48:44.423Z,80.12
2022-08-25T06:51:14.331Z,79.46
2022-08-25T06:53:42.216Z,79.98
2022-08-25T06:56:10.268Z,80.96
2022-08-25T06:58:38.490Z,81.57
2022-08-25T07:01:20.335Z,81.55
2022-08-25T07:03:48.899Z,82.06
2022-08-25T07:06:20.063Z,80.69
2022-08-25T07:08:47.616Z,80.73
2022-08-25T07:11:17.342Z,80.61
2022-08-25T07:13:45.881Z,80.27
2022-08-25T07:16:15.654Z,81.45
2022-08-25T07:18:45.467Z,79.78
2022-08-25T07:21:14.232Z,80.26
2022-08-25T07:23:42.038Z,80.77
2022-08-25T07:29:11.634Z,80.15
2022-08-25T07:31:39.533Z,80.36
2022-08-25T07:34:26.230Z,81.50
2022-08-25T07:36:55.031Z,80.73
2022-08-25T07:39:23.167Z,80.69
2022-08-25T07:41:52.419Z,79.80
2022-08-25T07:44:21.407Z,79.69
2022-08-25T07:46:50.336Z,77.99
2022-08-25T07:49:23.506Z,76.47
2022-08-25T07:52:05.457Z,74.35
2022-08-25T07:54:35.431Z,73.47
2022-08-25T07:57:06.688Z,73.00
2022-08-25T07:59:39.317Z,71.19
2022-08-25T08:02:08.444Z,68.92
2022-08-25T08:04:37.839Z,66.61
2022-08-25T08:07:12.215Z,65.91
2022-08-25T08:09:39.558Z,65.39
2022-08-25T08:12:07.024Z,64.50
2022-08-25T08:14:34.749Z,61.78
2022-08-25T08:17:07.352Z,61.97
2022-08-25T08:19:35.752Z,61.58
2022-08-25T08:22:04.626Z,61.55
2022-08-25T08:24:54.534Z,61.41
2022-08-25T08:27:19.843Z,60.28
2022-08-25T08:29:49.513Z,61.03
2022-08-25T08:32:18.683Z,61.83
2022-08-25T08:34:51.294Z,61.71
2022-08-25T08:37:20.306Z,62.11
2022-08-25T08:39:51.619Z,61.39
2022-08-25T08:42:30.769Z,61.29
2022-08-25T08:45:09.522Z,61.29
2022-08-25T08:48:10.764Z,59.48
2022-08-25T08:50:57.608Z,60.36
2022-08-25T08:54:05.754Z,60.44
2022-08-25T08:56:47.928Z,62.64
2022-08-25T08:59:29.877Z,63.22
2022-08-25T09:02:03.433Z,63.25
2022-08-25T09:04:41.024Z,64.76
2022-08-25T09:07:12.049Z,65.38
2022-08-25T09:09:42.468Z,63.28
2022-08-25T09:12:28.380Z,62.92
2022-08-25T09:15:12.873Z,63.23
2022-08-25T09:18:05.608Z,61.54
2022-08-25T09:20:59.897Z,60.20
2022-08-25T09:23:52.273Z,60.40
2022-08-25T09:26:45.781Z,61.02
2022-08-25T09:29:22.698Z,60.41
2022-08-25T09:31:54.206Z,61.39
2022-08-25T09:34:25.096Z,60.43
2022-08-25T09:36:53.428Z,60.13
2022-08-25T09:39:21.555Z,59.54
2022-08-25T09:41:52.261Z,59.86
2022-08-25T09:44:31.932Z,57.93
2022-08-25T09:47:20.129Z,60.42
2022-08-25T09:50:04.534Z,61.82
2022-08-25T09:52:41.476Z,63.20
2022-08-25T09:55:08.862Z,62.59
2022-08-25T09:57:43.111Z,61.96
2022-08-25T10:00:22.514Z,63.91
2022-08-25T10:03:12.041Z,62.88
2022-08-25T10:05:41.897Z,61.81
2022-08-25T10:08:14.789Z,61.15
2022-08-25T10:10:55.977Z,62.11
2022-08-25T10:13:44.621Z,63.06
2022-08-25T10:16:27.012Z,59.19
2022-08-25T10:19:28.858Z,57.63
2022-08-25T10:22:05.838Z,58.66
2022-08-25T10:24:33.835Z,55.33
2022-08-25T10:27:19.712Z,56.29
2022-08-25T10:30:19.409Z,58.62
2022-08-25T10:32:52.125Z,58.27
2022-08-25T10:35:31.700Z,57.46
2022-08-25T10:38:27.292Z,57.35
2022-08-25T10:41:27.097Z,59.00
2022-08-25T10:44:06.015Z,56.63
2022-08-25T10:46:57.345Z,57.04
2022-08-25T10:49:45.257Z,58.37
2022-08-25T10:52:29.417Z,59.17
2022-08-25T10:55:17.947Z,57.45
2022-08-25T10:58:06.395Z,57.38
2022-08-25T11:01:14.738Z,57.74
2022-08-25T11:04:07.735Z,54.92
2022-08-25T11:06:52.706Z,55.87
2022-08-25T11:09:31.300Z,56.05
2022-08-25T11:12:04.755Z,55.57
2022-08-25T11:14:40.587Z,55.90
2022-08-25T11:17:17.024Z,55.11
2022-08-25T11:19:48.680Z,54.08
2022-08-25T11:22:21.710Z,55.61
2022-08-25T11:25:21.675Z,53.31
2022-08-25T11:28:06.952Z,51.99
2022-08-25T11:30:34.777Z,51.81
2022-08-25T11:33:02.247Z,53.26
2022-08-25T11:35:35.939Z,52.43
2022-08-25T11:38:42.177Z,52.41
2022-08-25T11:41:35.862Z,51.98
2022-08-25T11:44:35.219Z,52.16
2022-08-25T11:47:21.460Z,53.93
2022-08-25T11:50:08.741Z,54.03
2022-08-25T11:52:38.598Z,53.92
2022-08-25T11:55:37.043Z,52.74
2022-08-25T11:58:34.540Z,52.11
2022-08-25T12:01:04.168Z,52.37
2022-08-25T12:03:37.331Z,52.48
2022-08-25T12:06:18.759Z,53.44
2022-08-25T12:09:01.459Z,53.56
2022-08-25T12:11:48.542Z,53.33
2022-08-25T12:14:25.029Z,52.01
2022-08-25T12:16:55.706Z,54.58
2022-08-25T12:19:35.019Z,53.36
2022-08-25T12:22:05.043Z,53.09
2022-08-25T12:24:48.282Z,50.43
2022-08-25T12:27:33.809Z,51.82
2022-08-25T12:30:20.761Z,52.24
2022-08-25T12:33:09.407Z,51.77
2022-08-25T12:35:59.199Z,52.80
2022-08-25T12:38:44.113Z,51.88
2022-08-25T12:41:27.175Z,53.80
2022-08-25T12:44:40.600Z,53.12
2022-08-25T12:47:32.313Z,53.75
2022-08-25T12:50:33.577Z,53.83
2022-08-25T12:53:11.474Z,54.29
2022-08-25T12:55:44.437Z,53.99
2022-08-25T12:58:12.500Z,54.25
2022-08-25T13:01:17.468Z,52.89
2022-08-25T13:04:21.389Z,52.56
2022-08-25T13:07:16.298Z,53.93
2022-08-25T13:10:01.325Z,52.54
2022-08-25T13:12:34.535Z,53.64
2022-08-25T13:15:01.482Z,54.19
2022-08-25T13:17:33.941Z,56.21
2022-08-25T13:20:29.356Z,54.52
2022-08-25T13:23:04.017Z,52.65
2022-08-25T13:25:33.442Z,52.41
2022-08-25T13:28:11.039Z,53.14
2022-08-25T13:30:40.030Z,53.98
2022-08-25T13:33:21.827Z,50.36
2022-08-25T13:36:12.001Z,51.41
2022-08-25T13:38:40.582Z,50.80
2022-08-25T13:41:09.790Z,49.37
2022-08-25T13:43:38.966Z,50.44
2022-08-25T13:46:07.097Z,50.84
2022-08-25T13:48:34.088Z,49.59
2022-08-25T13:51:19.673Z,50.32
2022-08-25T13:53:51.881Z,49.70
2022-08-25T13:56:38.771Z,49.36
2022-08-25T13:59:33.829Z,49.71
2022-08-25T14:02:01.197Z,49.68
2022-08-25T14:04:32.278Z,50.22
2022-08-25T14:07:27.500Z,50.25
2022-08-25T14:10:32.674Z,49.95
2022-08-25T14:13:16.788Z,51.47
2022-08-25T14:15:46.492Z,49.35
2022-08-25T14:18:26.992Z,50.80
2022-08-25T14:20:56.513Z,49.63
2022-08-25T14:23:30.226Z,51.05
2022-08-25T14:26:09.368Z,49.91
2022-08-25T14:28:36.519Z,49.43
2022-08-25T14:31:13.823Z,49.72
2022-08-25T14:33:54.091Z,49.57
2022-08-25T14:36:21.569Z,49.41
2022-08-25T14:38:54.882Z,49.47
2022-08-25T14:41:24.832Z,48.92
2022-08-25T14:43:51.877Z,49.10
2022-08-25T14:46:26.437Z,50.07
2022-08-25T14:49:01.098Z,50.70
2022-08-25T14:51:32.957Z,50.08
2022-08-25T14:54:03.467Z,50.38
2022-08-25T14:56:32.196Z,50.78
2022-08-25T14:58:59.898Z,51.00
2022-08-25T15:01:29.964Z,50.37
2022-08-25T15:04:17.591Z,49.45
2022-08-25T15:06:45.457Z,49.84
2022-08-25T15:09:16.617Z,50.35
2022-08-25T15:11:47.273Z,50.09
2022-08-25T15:14:28.835Z,50.14
2022-08-25T15:17:01.880Z,50.12
2022-08-25T15:19:29.531Z,50.46
2022-08-25T15:21:57.707Z,50.97
2022-08-25T15:24:27.322Z,50.39
2022-08-25T15:27:04.098Z,50.60
2022-08-25T15:29:34.956Z,50.96
2022-08-25T15:32:10.215Z,51.43
2022-08-25T15:34:37.726Z,51.74
2022-08-25T15:37:14.096Z,51.35
2022-08-25T15:39:44.538Z,51.79
2022-08-25T15:42:12.440Z,51.67
2022-08-25T15:44:40.569Z,52.64
2022-08-25T15:47:12.581Z,53.64
2022-08-25T15:49:40.035Z,53.83
2022-08-25T15:52:07.114Z,53.01
2022-08-25T15:54:34.289Z,53.70
2022-08-25T15:57:03.443Z,54.07
2022-08-25T15:59:36.028Z,54.67
2022-08-25T16:02:15.051Z,55.06
2022-08-25T16:04:43.046Z,56.94
2022-08-25T16:07:13.187Z,56.29
2022-08-25T16:09:41.747Z,56.58
2022-08-25T16:12:09.092Z,57.17
2022-08-25T16:14:38.397Z,56.84
2022-08-25T16:17:06.412Z,57.67
2022-08-25T16:19:34.186Z,57.67
2022-08-25T16:22:08.721Z,57.51
2022-08-25T16:24:38.652Z,58.01
2022-08-25T16:27:11.436Z,57.95
2022-08-25T16:29:41.872Z,58.63
2022-08-25T16:32:09.966Z,58.58
2022-08-25T16:34:37.737Z,58.55
2022-08-25T16:37:06.775Z,58.87
2022-08-25T16:39:33.867Z,58.41
2022-08-25T16:42:00.988Z,59.42
2022-08-25T16:44:28.316Z,58.77
2022-08-25T16:46:56.040Z,59.87
2022-08-25T16:49:24.498Z,60.93
2022-08-25T16:51:57.813Z,61.91
2022-08-25T16:54:45.236Z,61.68
2022-08-25T16:57:12.766Z,62.84
2022-08-25T16:59:39.931Z,65.40
2022-08-25T17:02:07.132Z,67.48
2022-08-25T17:04:40.674Z,69.05
2022-08-25T17:07:07.985Z,70.41
2022-08-25T17:09:35.199Z,72.99
2022-08-25T17:12:02.326Z,71.81
2022-08-25T17:14:29.538Z,73.58
2022-08-25T17:16:57.891Z,74.77
2022-08-25T17:19:28.143Z,73.35
2022-08-25T17:21:55.394Z,75.22
2022-08-25T17:24:29.427Z,76.33
2022-08-25T17:26:59.170Z,77.23
2022-08-25T17:29:26.801Z,79.35
2022-08-25T17:31:54.010Z,80.45
2022-08-25T17:34:23.439Z,80.73
2022-08-25T17:36:51.330Z,81.46
2022-08-25T17:39:22.705Z,82.99
2022-08-25T17:41:51.803Z,84.43
2022-08-25T17:44:21.050Z,85.63
2022-08-25T17:46:48.887Z,85.64
2022-08-25T17:49:17.363Z,86.76
2022-08-25T17:51:45.381Z,87.25
2022-08-25T17:54:12.874Z,88.90
2022-08-25T17:56:39.904Z,89.70
2022-08-25T17:59:07.273Z,90.53
2022-08-25T18:01:40.550Z,90.96
2022-08-25T18:04:15.622Z,90.88
2022-08-25T18:06:45.240Z,91.90
2022-08-25T18:09:13.046Z,93.53
2022-08-25T18:11:40.655Z,95.13
2022-08-25T18:14:08.039Z,94.85
2022-08-25T18:16:38.732Z,95.31
2022-08-25T18:19:06.588Z,95.74
2022-08-25T18:21:37.293Z,96.57
2022-08-25T18:24:04.630Z,95.53
2022-08-25T18:26:31.793Z,96.20
2022-08-25T18:28:59.858Z,96.92
2022-08-25T18:31:27.755Z,98.18
2022-08-25T18:33:55.077Z,98.26
2022-08-25T18:36:22.299Z,98.44
2022-08-25T18:39:08.153Z,98.29
2022-08-25T18:41:38.557Z,98.76
2022-08-25T18:46:35.707Z,99.26
2022-08-25T18:49:03.231Z,99.63
2022-08-25T18:51:33.075Z,100.00
2022-08-25T18:54:01.366Z,100.00
2022-08-25T18:56:28.987Z,100.00
2022-08-25T18:58:56.666Z,100.00
2022-08-25T19:01:24.209Z,100.00
2022-08-25T19:04:41.129Z,100.00
2022-08-25T19:07:09.305Z,100.00
2022-08-25T19:09:36.848Z,100.00
2022-08-25T19:12:05.274Z,100.00
2022-08-25T19:14:32.469Z,100.00
2022-08-25T19:17:00.985Z,100.00
2022-08-25T19:19:28.463Z,100.00
2022-08-25T19:21:55.982Z,100.00
2022-08-25T19:24:23.101Z,100.00
2022-08-25T19:26:54.446Z,100.00
2022-08-25T19:29:23.718Z,100.00
2022-08-25T19:31:51.740Z,100.00
2022-08-25T19:34:30.372Z,100.00
2022-08-25T19:36:59.662Z,100.00
2022-08-25T19:39:30.608Z,100.00
2022-08-25T19:41:58.108Z,100.00
2022-08-25T19:44:26.573Z,100.00
2022-08-25T19:46:56.515Z,100.00
2022-08-25T19:49:31.827Z,100.00
2022-08-25T19:52:02.506Z,100.00
2022-08-25T19:54:34.665Z,100.00
2022-08-25T19:57:03.416Z,100.00
2022-08-25T19:59:34.378Z,100.00
2022-08-25T20:02:15.381Z,100.00
2022-08-25T20:04:49.313Z,100.00
2022-08-25T20:07:19.358Z,100.00
2022-08-25T20:09:47.827Z,100.00
2022-08-25T20:14:49.539Z,100.00
2022-08-25T20:17:24.252Z,100.00
2022-08-25T20:19:55.522Z,100.00
2022-08-25T20:22:26.114Z,100.00
2022-08-25T20:24:57.907Z,100.00
2022-08-25T20:27:33.396Z,100.00
2022-08-25T20:30:02.691Z,100.00
2022-08-25T20:32:31.640Z,100.00
2022-08-25T20:34:58.714Z,100.00
2022-08-25T20:37:26.092Z,100.00
2022-08-25T20:39:53.365Z,100.00
2022-08-25T20:42:20.911Z,100.00
2022-08-25T20:44:48.209Z,100.00
2022-08-25T20:47:15.632Z,100.00
2022-08-25T20:49:46.509Z,100.00
2022-08-25T20:52:14.060Z,100.00
2022-08-25T20:54:46.925Z,100.00
2022-08-25T20:57:14.249Z,100.00
2022-08-25T20:59:41.361Z,100.00
2022-08-25T21:02:08.766Z,100.00
2022-08-25T21:04:37.272Z,100.00
2022-08-25T21:07:06.644Z,100.00
2022-08-25T21:09:36.104Z,100.00
2022-08-25T21:12:07.418Z,100.00
2022-08-25T21:14:38.607Z,100.00
2022-08-25T21:17:06.264Z,100.00
2022-08-25T21:19:33.722Z,100.00
2022-08-25T21:22:01.078Z,100.00
2022-08-25T21:24:29.546Z,100.00
2022-08-25T21:26:59.966Z,100.00
2022-08-25T21:29:30.376Z,100.00
2022-08-25T21:32:01.851Z,100.00
2022-08-25T21:34:29.581Z,100.00
2022-08-25T21:36:59.242Z,100.00
2022-08-25T21:39:28.296Z,100.00
2022-08-25T21:42:00.111Z,100.00
2022-08-25T21:44:28.150Z,100.00
2022-08-25T21:46:55.526Z,100.00
2022-08-25T21:49:24.581Z,100.00
2022-08-25T21:52:00.087Z,100.00
2022-08-25T21:54:29.062Z,100.00
2022-08-25T21:57:00.027Z,100.00
2022-08-25T21:59:37.155Z,100.00
2022-08-25T22:02:07.880Z,100.00
2022-08-25T22:04:38.887Z,100.00
2022-08-25T22:07:08.470Z,100.00
2022-08-25T22:09:36.414Z,100.00
2022-08-25T22:12:04.573Z,100.00
2022-08-25T22:14:32.648Z,100.00
2022-08-25T22:17:00.278Z,100.00
2022-08-25T22:19:27.509Z,100.00
2022-08-25T22:21:55.638Z,100.00
2022-08-25T22:24:27.954Z,100.00
2022-08-25T22:26:56.485Z,100.00
2022-08-25T22:29:25.370Z,100.00
2022-08-25T22:32:00.715Z,100.00
2022-08-25T22:34:32.804Z,100.00
2022-08-25T22:37:04.775Z,100.00
2022-08-25T22:39:34.252Z,100.00
2022-08-25T22:42:02.979Z,100.00
2022-08-25T22:44:30.854Z,100.00
2022-08-25T22:46:57.958Z,100.00
2022-08-25T22:49:29.116Z,100.00
2022-08-25T22:51:57.408Z,100.00
2022-08-25T22:54:25.374Z,100.00
2022-08-25T22:56:53.636Z,100.00
2022-08-25T22:59:22.111Z,100.00
2022-08-25T23:01:50.158Z,100.00
2022-08-25T23:04:17.710Z,100.00
2022-08-25T23:06:46.146Z,100.00
2022-08-25T23:09:14.548Z,100.00
2022-08-25T23:11:43.301Z,100.00
2022-08-25T23:14:11.589Z,100.00
2022-08-25T23:16:41.684Z,100.00
2022-08-25T23:19:10.892Z,100.00
2022-08-25T23:21:59.141Z,100.00
2022-08-25T23:24:29.352Z,100.00
2022-08-25T23:26:59.584Z,100.00
2022-08-25T23:29:28.829Z,100.00
2022-08-25T23:31:57.104Z,100.00
2022-08-25T23:34:25.525Z,100.00
2022-08-25T23:36:53.001Z,100.00
2022-08-25T23:39:21.690Z,100.00
2022-08-25T23:41:49.503Z,100.00
2022-08-25T23:44:17.346Z,100.00
2022-08-25T23:46:45.284Z,100.00
2022-08-25T23:49:14.942Z,100.00
2022-08-25T23:51:47.586Z,100.00
2022-08-25T23:54:16.279Z,100.00
2022-08-25T23:56:44.996Z,100.00
2022-08-25T23:59:24.629Z,100.00
